createdAt,value
2018-12-06T00:02:06.924Z,15.33
2018-12-06T00:04:35.225Z,15.10
2018-12-06T00:07:03.579Z,15.77
2018-12-06T00:09:31.765Z,14.50
2018-12-06T00:11:59.930Z,15.50
2018-12-06T00:14:28.143Z,16.10
2018-12-06T00:16:56.529Z,15.33
2018-12-06T00:19:24.768Z,15.40
2018-12-06T00:21:53.028Z,15.77
2018-12-06T00:24:21.381Z,15.50
2018-12-06T00:26:49.566Z,14.93
2018-12-06T00:29:17.810Z,15.60
2018-12-06T00:31:46.208Z,14.90
2018-12-06T00:34:14.410Z,14.27
2018-12-06T00:36:42.648Z,15.47
2018-12-06T00:39:11.921Z,14.43
2018-12-06T00:41:40.111Z,14.03
2018-12-06T00:44:08.402Z,14.97
2018-12-06T00:46:36.672Z,15.10
2018-12-06T00:49:05.064Z,15.40
2018-12-06T00:51:33.304Z,15.57
2018-12-06T00:54:01.566Z,15.93
2018-12-06T00:56:29.813Z,14.67
2018-12-06T00:58:58.014Z,15.37
2018-12-06T01:01:28.328Z,15.67
2018-12-06T01:03:56.678Z,15.03
2018-12-06T01:06:24.896Z,14.40
2018-12-06T01:08:53.054Z,14.23
2018-12-06T01:11:21.431Z,14.50
2018-12-06T01:13:49.803Z,14.27
2018-12-06T01:16:18.054Z,14.10
2018-12-06T01:18:46.313Z,14.50
2018-12-06T01:21:14.494Z,16.00
2018-12-06T01:23:42.795Z,15.93
2018-12-06T01:26:10.990Z,15.93
2018-12-06T01:28:39.255Z,15.90
2018-12-06T01:31:07.597Z,16.53
2018-12-06T01:33:35.834Z,16.70
2018-12-06T01:36:04.003Z,15.97
2018-12-06T01:38:32.292Z,15.63
2018-12-06T01:41:00.469Z,15.53
2018-12-06T01:43:28.681Z,14.87
2018-12-06T01:45:56.909Z,15.47
2018-12-06T01:48:25.277Z,15.80
2018-12-06T01:50:53.489Z,15.50
2018-12-06T01:53:21.718Z,15.17
2018-12-06T01:55:49.946Z,14.13
2018-12-06T01:58:18.143Z,14.50
2018-12-06T02:00:46.434Z,14.27
2018-12-06T02:03:14.711Z,14.07
2018-12-06T02:05:42.971Z,13.70
2018-12-06T02:08:11.189Z,14.03
2018-12-06T02:10:39.381Z,14.67
2018-12-06T02:13:07.529Z,13.83
2018-12-06T02:15:35.834Z,14.17
2018-12-06T02:18:04.217Z,15.07
2018-12-06T02:20:32.496Z,13.97
2018-12-06T02:23:00.800Z,14.67
2018-12-06T02:25:29.045Z,14.90
2018-12-06T02:27:57.297Z,14.13
2018-12-06T02:30:25.554Z,14.07
2018-12-06T02:32:53.788Z,14.03
2018-12-06T02:35:22.052Z,13.60
2018-12-06T02:37:50.538Z,14.00
2018-12-06T02:40:24.596Z,15.00
2018-12-06T02:42:52.817Z,13.60
2018-12-06T02:45:21.016Z,13.73
2018-12-06T02:47:49.226Z,13.90
2018-12-06T02:50:17.422Z,13.17
2018-12-06T02:52:45.641Z,13.60
2018-12-06T02:55:13.899Z,12.77
2018-12-06T02:57:45.260Z,13.73
2018-12-06T03:00:13.589Z,13.80
2018-12-06T03:02:41.878Z,13.00
2018-12-06T03:05:10.099Z,13.03
2018-12-06T03:07:38.390Z,14.10
2018-12-06T03:10:07.876Z,13.60
2018-12-06T03:12:40.077Z,13.33
2018-12-06T03:15:08.436Z,12.63
2018-12-06T03:17:36.802Z,13.40
2018-12-06T03:20:06.510Z,13.57
2018-12-06T03:22:34.840Z,12.80
2018-12-06T03:25:03.159Z,13.90
2018-12-06T03:27:31.449Z,13.23
2018-12-06T03:29:59.809Z,13.23
2018-12-06T03:32:28.040Z,14.47
2018-12-06T03:34:56.411Z,13.27
2018-12-06T03:37:24.675Z,14.00
2018-12-06T03:39:52.854Z,13.57
2018-12-06T03:42:21.097Z,13.40
2018-12-06T03:44:49.372Z,13.50
2018-12-06T03:47:17.625Z,12.57
2018-12-06T03:49:52.572Z,13.20
2018-12-06T03:52:20.803Z,13.43
2018-12-06T03:54:49.033Z,13.23
2018-12-06T03:57:17.274Z,13.10
2018-12-06T03:59:45.478Z,13.03
2018-12-06T04:02:13.681Z,12.60
2018-12-06T04:04:41.884Z,13.10
2018-12-06T04:07:10.122Z,13.33
2018-12-06T04:09:38.367Z,13.30
2018-12-06T04:12:09.842Z,13.23
2018-12-06T04:14:38.064Z,13.43
2018-12-06T04:17:06.306Z,13.03
2018-12-06T04:19:34.482Z,12.93
2018-12-06T04:22:02.692Z,13.07
2018-12-06T04:24:30.895Z,13.03
2018-12-06T04:26:59.233Z,14.20
2018-12-06T04:29:27.441Z,11.97
2018-12-06T04:31:55.750Z,13.07
2018-12-06T04:34:24.016Z,13.90
2018-12-06T04:36:52.251Z,13.40
2018-12-06T04:39:20.406Z,12.27
2018-12-06T04:41:48.599Z,13.00
2018-12-06T04:44:16.800Z,13.30
2018-12-06T04:46:45.041Z,13.60
2018-12-06T04:49:13.228Z,13.97
2018-12-06T04:51:41.493Z,12.33
2018-12-06T04:54:09.766Z,12.53
2018-12-06T04:56:38.022Z,12.77
2018-12-06T04:59:06.313Z,12.67
2018-12-06T05:01:34.610Z,13.40
2018-12-06T05:04:02.787Z,13.20
2018-12-06T05:06:31.050Z,12.37
2018-12-06T05:08:59.287Z,12.77
2018-12-06T05:11:27.532Z,13.23
2018-12-06T05:13:55.744Z,12.40
2018-12-06T05:16:24.070Z,13.43
2018-12-06T05:18:52.422Z,12.00
2018-12-06T05:21:20.606Z,14.07
2018-12-06T05:23:48.800Z,13.90
2018-12-06T05:26:17.016Z,12.87
2018-12-06T05:28:45.246Z,13.00
2018-12-06T05:31:13.509Z,13.50
2018-12-06T05:33:41.739Z,13.53
2018-12-06T05:36:09.950Z,13.37
2018-12-06T05:38:38.261Z,13.30
2018-12-06T05:41:13.239Z,13.73
2018-12-06T05:43:41.532Z,12.37
2018-12-06T05:46:09.811Z,13.33
2018-12-06T05:48:38.098Z,13.20
2018-12-06T05:51:06.470Z,13.53
2018-12-06T05:53:34.680Z,13.43
2018-12-06T05:56:02.929Z,13.33
2018-12-06T05:58:31.183Z,15.20
2018-12-06T06:00:59.429Z,12.70
2018-12-06T06:03:27.666Z,14.37
2018-12-06T06:05:55.854Z,12.87
2018-12-06T06:08:24.084Z,15.43
2018-12-06T06:10:52.311Z,13.53
2018-12-06T06:13:20.501Z,13.57
2018-12-06T06:15:48.936Z,12.83
2018-12-06T06:18:17.123Z,13.07
2018-12-06T06:20:45.426Z,14.43
2018-12-06T06:23:13.654Z,13.00
2018-12-06T06:25:42.002Z,12.50
2018-12-06T06:28:10.335Z,13.70
2018-12-06T06:30:38.537Z,12.93
2018-12-06T06:33:06.771Z,13.13
2018-12-06T06:35:35.000Z,12.80
2018-12-06T06:38:03.346Z,13.50
2018-12-06T06:40:31.682Z,14.93
2018-12-06T06:42:59.877Z,13.90
2018-12-06T06:45:28.115Z,14.67
2018-12-06T06:47:56.313Z,13.27
2018-12-06T06:50:24.758Z,15.33
2018-12-06T06:52:52.968Z,14.10
2018-12-06T06:55:21.274Z,14.27
2018-12-06T06:57:49.573Z,12.80
2018-12-06T07:00:17.755Z,14.33
2018-12-06T07:02:45.996Z,12.47
2018-12-06T07:05:14.204Z,11.93
2018-12-06T07:07:42.397Z,12.73
2018-12-06T07:10:10.817Z,12.27
2018-12-06T07:12:39.087Z,11.77
2018-12-06T07:15:11.087Z,12.53
2018-12-06T07:17:39.617Z,10.87
2018-12-06T07:20:08.024Z,12.20
2018-12-06T07:22:36.325Z,11.67
2018-12-06T07:25:06.042Z,11.97
2018-12-06T07:27:41.326Z,11.60
2018-12-06T07:30:12.426Z,11.77
2018-12-06T07:32:43.469Z,12.03
2018-12-06T07:35:11.736Z,12.73
2018-12-06T07:37:40.611Z,12.17
2018-12-06T07:40:09.267Z,12.87
2018-12-06T07:42:37.549Z,11.60
2018-12-06T07:45:05.922Z,12.17
2018-12-06T07:47:34.143Z,12.83
2018-12-06T07:50:02.608Z,12.23
2018-12-06T07:52:30.838Z,12.33
2018-12-06T07:55:00.788Z,12.07
2018-12-06T07:57:29.115Z,11.63
2018-12-06T07:59:57.706Z,11.77
2018-12-06T08:02:27.597Z,11.77
2018-12-06T08:04:57.827Z,10.80
2018-12-06T08:07:26.219Z,11.60
2018-12-06T08:09:54.456Z,12.17
2018-12-06T08:12:23.695Z,10.93
2018-12-06T08:14:51.926Z,11.90
2018-12-06T08:17:20.941Z,10.60
2018-12-06T08:19:50.143Z,11.03
2018-12-06T08:22:18.387Z,10.50
2018-12-06T08:24:46.606Z,12.30
2018-12-06T08:27:14.915Z,10.93
2018-12-06T08:29:43.552Z,11.60
2018-12-06T08:32:11.875Z,11.17
2018-12-06T08:34:42.000Z,11.77
2018-12-06T08:37:10.199Z,10.83
2018-12-06T08:39:38.390Z,10.50
2018-12-06T08:42:06.613Z,11.07
2018-12-06T08:44:34.853Z,10.73
2018-12-06T08:47:03.123Z,10.90
2018-12-06T08:49:31.680Z,10.63
2018-12-06T08:51:59.910Z,11.53
2018-12-06T08:54:28.106Z,11.43
2018-12-06T08:56:57.099Z,10.17
2018-12-06T08:59:26.321Z,10.27
2018-12-06T09:01:54.526Z,10.77
2018-12-06T09:04:22.797Z,11.60
2018-12-06T09:06:56.377Z,14.70
2018-12-06T09:09:24.649Z,14.50
2018-12-06T09:11:52.888Z,13.53
2018-12-06T09:14:21.072Z,13.23
2018-12-06T09:16:49.362Z,13.70
2018-12-06T09:19:17.546Z,13.47
2018-12-06T09:21:45.738Z,11.87
2018-12-06T09:24:13.917Z,10.17
2018-12-06T09:26:42.059Z,9.20
2018-12-06T09:29:10.718Z,9.70
2018-12-06T09:31:38.902Z,9.77
2018-12-06T09:34:08.502Z,9.63
2018-12-06T09:36:37.747Z,10.10
2018-12-06T09:39:08.898Z,9.03
2018-12-06T09:41:38.875Z,8.07
2018-12-06T09:44:07.214Z,7.70
2018-12-06T09:46:35.424Z,9.97
2018-12-06T09:49:10.078Z,9.10
2018-12-06T09:51:38.321Z,8.10
2018-12-06T09:54:06.690Z,7.07
2018-12-06T09:56:35.262Z,7.23
2018-12-06T09:59:07.843Z,6.90
2018-12-06T10:01:36.067Z,6.87
2018-12-06T10:04:04.233Z,6.07
2018-12-06T10:06:32.437Z,7.30
2018-12-06T10:09:01.565Z,7.47
2018-12-06T10:11:29.769Z,7.03
2018-12-06T10:13:57.997Z,6.10
2018-12-06T10:16:26.178Z,6.67
2018-12-06T10:18:58.911Z,5.10
2018-12-06T10:21:27.115Z,5.23
2018-12-06T10:23:56.149Z,5.70
2018-12-06T10:26:24.401Z,5.20
2018-12-06T10:28:52.663Z,5.70
2018-12-06T10:31:21.094Z,6.03
2018-12-06T10:33:49.927Z,5.37
2018-12-06T10:36:18.164Z,5.97
2018-12-06T10:38:46.452Z,7.43
2018-12-06T10:41:14.750Z,6.60
2018-12-06T10:43:45.460Z,6.30
2018-12-06T10:46:13.672Z,6.67
2018-12-06T10:48:42.297Z,5.70
2018-12-06T10:51:39.615Z,6.17
2018-12-06T10:54:07.894Z,5.10
2018-12-06T10:56:40.504Z,5.60
2018-12-06T10:59:08.766Z,5.63
2018-12-06T11:01:42.561Z,6.30
2018-12-06T11:04:10.912Z,5.40
2018-12-06T11:06:42.915Z,4.80
2018-12-06T11:09:11.089Z,6.03
2018-12-06T11:11:39.405Z,6.17
2018-12-06T11:14:07.707Z,5.90
2018-12-06T11:16:36.067Z,6.10
2018-12-06T11:19:04.350Z,6.50
2018-12-06T11:21:32.785Z,5.90
2018-12-06T11:24:06.513Z,5.67
2018-12-06T11:26:35.133Z,6.00
2018-12-06T11:29:03.533Z,5.30
2018-12-06T11:31:31.768Z,5.67
2018-12-06T11:33:59.953Z,6.27
2018-12-06T11:36:28.201Z,6.47
2018-12-06T11:38:56.439Z,5.87
2018-12-06T11:41:24.772Z,6.10
2018-12-06T11:43:52.958Z,5.23
2018-12-06T11:46:21.224Z,6.20
2018-12-06T11:48:49.450Z,6.10
2018-12-06T11:51:17.726Z,6.47
2018-12-06T11:53:45.921Z,6.67
2018-12-06T11:56:14.184Z,6.03
2018-12-06T11:58:42.376Z,6.57
2018-12-06T12:01:10.712Z,7.03
2018-12-06T12:03:40.415Z,6.50
2018-12-06T12:06:09.020Z,6.17
2018-12-06T12:08:37.250Z,5.70
2018-12-06T12:11:05.558Z,6.03
2018-12-06T12:13:33.731Z,5.50
2018-12-06T12:16:02.014Z,6.07
2018-12-06T12:18:30.243Z,11.17
2018-12-06T12:20:58.493Z,8.10
2018-12-06T12:23:26.706Z,7.13
2018-12-06T12:25:54.962Z,7.23
2018-12-06T12:28:23.205Z,5.93
2018-12-06T12:30:51.414Z,5.83
2018-12-06T12:33:19.642Z,5.60
2018-12-06T12:35:49.033Z,5.50
2018-12-06T12:38:17.771Z,5.43
2018-12-06T12:40:46.078Z,5.10
2018-12-06T12:43:14.291Z,4.63
2018-12-06T12:45:42.566Z,5.33
2018-12-06T12:48:10.795Z,4.10
2018-12-06T12:50:42.482Z,4.53
2018-12-06T12:53:10.683Z,3.93
2018-12-06T12:55:42.374Z,3.97
2018-12-06T12:58:10.582Z,3.77
2018-12-06T13:00:38.819Z,2.93
2018-12-06T13:03:07.053Z,3.40
2018-12-06T13:05:39.026Z,3.80
2018-12-06T13:08:07.303Z,3.67
2018-12-06T13:10:35.603Z,3.47
2018-12-06T13:13:03.946Z,3.43
2018-12-06T13:15:33.240Z,3.07
2018-12-06T13:18:01.989Z,3.03
2018-12-06T13:20:32.151Z,3.03
2018-12-06T13:23:00.346Z,3.20
2018-12-06T13:25:28.558Z,2.80
2018-12-06T13:28:01.314Z,16.43
2018-12-06T13:30:29.614Z,5.30
2018-12-06T13:32:57.896Z,3.80
2018-12-06T13:35:26.884Z,2.83
2018-12-06T13:37:55.174Z,2.83
2018-12-06T13:40:23.356Z,2.77
2018-12-06T13:42:51.613Z,3.33
2018-12-06T13:45:19.825Z,4.00
2018-12-06T13:47:48.076Z,3.30
2018-12-06T13:50:16.263Z,3.30
2018-12-06T13:52:44.886Z,3.00
2018-12-06T13:55:13.206Z,3.17
2018-12-06T13:57:41.373Z,3.37
2018-12-06T14:00:09.833Z,3.17
2018-12-06T14:02:38.148Z,3.00
2018-12-06T14:05:11.374Z,3.80
2018-12-06T14:07:39.650Z,3.07
2018-12-06T14:10:11.763Z,3.87
2018-12-06T14:12:39.973Z,4.27
2018-12-06T14:15:08.374Z,3.83
2018-12-06T14:17:36.671Z,4.73
2018-12-06T14:20:06.573Z,3.93
2018-12-06T14:22:34.938Z,4.20
2018-12-06T14:25:03.413Z,4.63
2018-12-06T14:27:31.689Z,5.10
2018-12-06T14:29:59.906Z,7.60
2018-12-06T14:32:28.189Z,6.60
2018-12-06T14:34:57.139Z,3.80
2018-12-06T14:37:25.358Z,4.17
2018-12-06T14:39:53.613Z,3.60
2018-12-06T14:42:22.551Z,3.47
2018-12-06T14:44:53.046Z,3.10
2018-12-06T14:47:21.218Z,3.57
2018-12-06T14:49:49.481Z,3.20
2018-12-06T14:52:17.754Z,3.43
2018-12-06T14:54:46.857Z,3.10
2018-12-06T14:57:15.138Z,3.30
2018-12-06T14:59:43.370Z,2.67
2018-12-06T15:02:11.583Z,3.10
2018-12-06T15:04:39.794Z,3.63
2018-12-06T15:07:09.441Z,4.03
2018-12-06T15:09:37.620Z,3.33
2018-12-06T15:12:05.854Z,4.20
2018-12-06T15:14:34.065Z,3.00
2018-12-06T15:17:02.317Z,3.17
2018-12-06T15:19:30.568Z,2.90
2018-12-06T15:21:59.013Z,3.30
2018-12-06T15:24:27.421Z,4.30
2018-12-06T15:26:58.355Z,4.80
2018-12-06T15:29:26.586Z,4.30
2018-12-06T15:31:55.270Z,6.20
2018-12-06T15:34:23.561Z,6.10
2018-12-06T15:36:51.838Z,7.47
2018-12-06T15:39:20.110Z,6.40
2018-12-06T15:41:49.367Z,6.23
2018-12-06T15:44:18.411Z,4.97
2018-12-06T15:46:46.629Z,4.30
2018-12-06T15:56:14.009Z,3.20
2018-12-06T15:58:42.291Z,3.77
2018-12-06T16:01:12.580Z,3.43
2018-12-06T16:03:41.002Z,3.83
2018-12-06T16:06:09.475Z,4.30
2018-12-06T16:08:37.875Z,4.63
2018-12-06T16:11:06.345Z,5.07
2018-12-06T16:13:34.723Z,5.20
2018-12-06T16:16:03.203Z,5.80
2018-12-06T16:18:33.274Z,5.20
2018-12-06T16:21:01.695Z,6.80
2018-12-06T16:23:30.074Z,4.37
2018-12-06T16:25:58.429Z,4.57
2018-12-06T16:28:26.771Z,3.90
2018-12-06T16:30:55.183Z,4.27
2018-12-06T16:33:23.511Z,4.10
2018-12-06T16:35:51.805Z,4.03
2018-12-06T16:38:20.121Z,3.43
2018-12-06T16:40:48.600Z,3.90
2018-12-06T16:43:17.032Z,3.70
2018-12-06T16:45:45.583Z,4.37
2018-12-06T16:48:15.611Z,4.47
2018-12-06T16:50:44.070Z,5.57
2018-12-06T16:53:14.183Z,5.47
2018-12-06T16:55:47.173Z,4.90
2018-12-06T16:58:15.900Z,5.10
2018-12-06T17:00:44.301Z,5.00
2018-12-06T17:03:12.831Z,4.80
2018-12-06T17:05:41.392Z,4.80
2018-12-06T17:08:09.801Z,3.97
2018-12-06T17:10:38.169Z,4.50
2018-12-06T17:13:06.587Z,4.10
2018-12-06T17:15:34.910Z,4.33
2018-12-06T17:18:03.304Z,4.47
2018-12-06T17:20:31.878Z,4.37
2018-12-06T17:23:00.302Z,4.20
2018-12-06T17:25:28.678Z,11.67
2018-12-06T17:27:57.182Z,20.33
2018-12-06T17:30:25.620Z,21.40
2018-12-06T17:32:54.087Z,23.27
2018-12-06T17:35:22.550Z,16.40
2018-12-06T17:37:50.879Z,10.43
2018-12-06T17:40:19.363Z,7.27
2018-12-06T17:42:47.708Z,5.60
2018-12-06T17:45:16.114Z,5.70
2018-12-06T17:47:44.534Z,5.07
2018-12-06T17:50:13.428Z,4.63
2018-12-06T17:52:41.875Z,3.63
2018-12-06T17:55:11.291Z,3.50
2018-12-06T17:57:39.968Z,3.80
2018-12-06T18:00:10.166Z,3.73
2018-12-06T18:02:38.537Z,3.87
2018-12-06T18:05:07.064Z,3.50
2018-12-06T18:07:35.418Z,3.90
2018-12-06T18:10:05.313Z,4.33
2018-12-06T18:12:33.726Z,4.30
2018-12-06T18:15:08.014Z,3.90
2018-12-06T18:17:36.380Z,4.93
2018-12-06T18:20:05.362Z,3.90
2018-12-06T18:22:33.792Z,4.10
2018-12-06T18:25:02.248Z,3.90
2018-12-06T18:27:30.587Z,4.13
2018-12-06T18:30:02.323Z,4.33
2018-12-06T18:32:31.377Z,4.97
2018-12-06T18:34:59.709Z,5.50
2018-12-06T18:37:28.057Z,5.70
2018-12-06T18:39:56.440Z,6.03
2018-12-06T18:42:24.738Z,6.80
2018-12-06T18:44:53.121Z,6.97
2018-12-06T18:47:21.454Z,5.70
2018-12-06T18:49:49.900Z,6.70
2018-12-06T18:52:18.416Z,6.57
2018-12-06T18:54:46.793Z,6.60
2018-12-06T18:57:15.197Z,6.03
2018-12-06T18:59:43.544Z,5.00
2018-12-06T19:02:11.978Z,5.67
2018-12-06T19:04:40.297Z,5.97
2018-12-06T19:07:08.667Z,5.73
2018-12-06T19:09:37.022Z,6.27
2018-12-06T19:12:05.475Z,6.07
2018-12-06T19:14:33.822Z,5.40
2018-12-06T19:17:02.091Z,5.50
2018-12-06T19:19:30.491Z,5.47
2018-12-06T19:21:58.908Z,5.43
2018-12-06T19:24:27.329Z,5.53
2018-12-06T19:26:55.778Z,5.60
2018-12-06T19:29:24.801Z,5.37
2018-12-06T19:31:53.260Z,5.87
2018-12-06T19:34:21.732Z,4.83
2018-12-06T19:36:50.077Z,5.37
2018-12-06T19:39:18.364Z,5.40
2018-12-06T19:41:46.801Z,4.60
2018-12-06T19:44:15.256Z,5.30
2018-12-06T19:46:43.824Z,5.63
2018-12-06T19:49:15.004Z,5.50
2018-12-06T19:51:43.327Z,4.97
2018-12-06T19:54:13.410Z,5.57
2018-12-06T19:56:41.829Z,5.63
2018-12-06T19:59:10.155Z,6.07
2018-12-06T20:01:38.535Z,5.30
2018-12-06T20:04:07.085Z,5.47
2018-12-06T20:06:35.936Z,5.33
2018-12-06T20:09:07.597Z,5.30
2018-12-06T20:11:36.171Z,11.57
2018-12-06T20:14:05.417Z,13.00
2018-12-06T20:16:33.759Z,12.53
2018-12-06T20:19:03.132Z,11.47
2018-12-06T20:21:31.496Z,10.23
2018-12-06T20:23:59.876Z,14.33
2018-12-06T20:26:29.169Z,9.60
2018-12-06T20:28:57.638Z,9.60
2018-12-06T20:31:25.951Z,8.80
2018-12-06T20:33:54.395Z,6.97
2018-12-06T20:36:22.701Z,8.00
2018-12-06T20:38:50.997Z,9.53
2018-12-06T20:41:19.246Z,10.07
2018-12-06T20:43:47.604Z,9.40
2018-12-06T20:46:21.365Z,8.97
2018-12-06T20:48:49.656Z,7.43
2018-12-06T20:51:17.971Z,8.63
2018-12-06T20:53:46.275Z,8.20
2018-12-06T20:56:14.524Z,7.67
2018-12-06T20:58:42.874Z,8.00
2018-12-06T21:01:11.132Z,8.00
2018-12-06T21:03:39.499Z,7.03
2018-12-06T21:06:07.799Z,7.30
2018-12-06T21:08:36.339Z,7.23
2018-12-06T21:11:04.646Z,6.53
2018-12-06T21:13:33.026Z,6.17
2018-12-06T21:16:01.352Z,6.53
2018-12-06T21:18:29.704Z,6.27
2018-12-06T21:20:58.042Z,6.77
2018-12-06T21:23:26.463Z,6.70
2018-12-06T21:25:55.898Z,7.00
2018-12-06T21:28:24.228Z,6.63
2018-12-06T21:30:52.540Z,6.40
2018-12-06T21:33:21.324Z,7.00
2018-12-06T21:35:49.892Z,5.10
2018-12-06T21:38:18.131Z,5.40
2018-12-06T21:40:46.359Z,5.57
2018-12-06T21:43:14.646Z,5.83
2018-12-06T21:45:42.923Z,5.03
2018-12-06T21:48:11.109Z,4.93
2018-12-06T21:50:39.394Z,4.37
2018-12-06T21:53:07.599Z,4.13
2018-12-06T21:55:35.832Z,3.90
2018-12-06T21:58:04.025Z,3.80
2018-12-06T22:00:32.237Z,3.53
2018-12-06T22:03:00.515Z,3.60
2018-12-06T22:05:28.709Z,3.70
2018-12-06T22:07:56.913Z,4.67
2018-12-06T22:10:25.134Z,4.70
2018-12-06T22:12:53.386Z,4.17
2018-12-06T22:15:21.581Z,4.43
2018-12-06T22:17:49.838Z,3.77
2018-12-06T22:20:18.169Z,2.50
2018-12-06T22:22:46.353Z,3.00
2018-12-06T22:25:14.664Z,2.73
2018-12-06T22:27:42.870Z,2.00
2018-12-06T22:30:11.786Z,2.10
2018-12-06T22:32:40.276Z,1.73
2018-12-06T22:35:08.518Z,1.67
2018-12-06T22:37:37.922Z,1.60
2018-12-06T22:40:06.544Z,1.67
2018-12-06T22:42:34.751Z,1.30
2018-12-06T22:46:11.561Z,1.60
2018-12-06T22:48:39.755Z,1.40
2018-12-06T22:51:08.040Z,1.53
2018-12-06T22:53:36.268Z,1.57
2018-12-06T22:56:04.578Z,1.40
2018-12-06T22:58:32.801Z,1.30
2018-12-06T23:01:01.390Z,1.10
2018-12-06T23:03:29.690Z,1.20
2018-12-06T23:05:57.900Z,1.13
2018-12-06T23:08:26.183Z,1.10
2018-12-06T23:10:54.567Z,0.90
2018-12-06T23:13:22.791Z,1.53
2018-12-06T23:15:51.082Z,0.97
2018-12-06T23:18:19.321Z,1.00
2018-12-06T23:20:47.538Z,1.03
2018-12-06T23:23:15.726Z,1.17
2018-12-06T23:25:43.923Z,1.43
2018-12-06T23:28:13.033Z,1.17
2018-12-06T23:30:41.608Z,1.33
2018-12-06T23:33:09.825Z,1.20
2018-12-06T23:35:38.127Z,1.20
2018-12-06T23:38:06.350Z,1.20
2018-12-06T23:40:34.586Z,0.93
2018-12-06T23:43:02.821Z,1.10
2018-12-06T23:45:31.038Z,1.20
2018-12-06T23:47:59.267Z,1.23
2018-12-06T23:50:27.536Z,1.00
2018-12-06T23:52:55.827Z,1.10
2018-12-06T23:55:24.068Z,1.83
2018-12-06T23:57:52.279Z,2.50
